x

Boston 16 Nm East Of Boston, Ma (44013) Wave Buoy

9:50 - Mon 1st Sep 2014 All times are EDT. -4 hours from GMT.

  • Sig Wave height 1.3ft
  • Swell Direction
  • Peak Period 8s
  • Average Period 6s
  • Wind
    4mph
  • Sea Temp 68°f
  • Luft Temp 70°f
  • Sea Pressure 1015.4mb
  • Boston 16 Nm East Of Boston, Ma
  • Boston 16 Nm East Of Boston, Ma

More Historic Weather Station data

Upgrade to MSW Pro to gain access to the past 30 days of data for over 8000 Wavebouys and Weather Stations around the globe.

Join Pro

Comparision Forecast

View Surf forecast
   
Mo 09/01 9:50 1.3ft 8s 6s 4
mph
1015.4mb 68f 70f
8:50 1ft 10s 5s 7
mph
1015.5mb 67f 69f
7:50 1.3ft 9s 6s 7
mph
1015.6mb 67f 69f
6:50 1ft 10s 5s 7 9 mph 1015.2mb 67f 69f
5:50 1.3ft 10s 5s 9
mph
1014.9mb 67f 69f
4:50 1.3ft 8s 5s 9 11 mph 1014.2mb 67f 69f
3:50 1.3ft 9s 5s 9 11 mph 1014.1mb 67f 70f
2:50 1.3ft 10s 5s 9
mph
1014mb 67f 69f
1:50 1.3ft 8s 5s 9
mph
1014.1mb 67f 69f
12:50 1.3ft 8s 5s 9 11 mph 1014.5mb 67f 70f
So 08/31 11:50 1.3ft 8s 5s 9 11 mph 1014.4mb 67f 70f
10:50 1.6ft 9s 5s 9
mph
1014.6mb 67f 70f
9:50 1.6ft 9s 4s 9 11 mph 1015mb 68f 70f
8:50 1.6ft 9s 4s 11 13 mph 1015.2mb 68f 71f
7:50 1.6ft 10s 5s 13 16 mph 1014.8mb 68f 71f
6:50 1.6ft 8s 5s 11 13 mph 1014.7mb 68f 73f
5:50 1.6ft 10s 4s 7 9 mph 1014.9mb 68f 73f
4:50 2ft 9s 4s 7
mph
1014.8mb 68f 73f
3:50 2ft 9s 4s 9
mph
1015.1mb 68f 73f
2:50 2ft 8s 4s 11 13 mph 1015.6mb 68f 74f
1:50 2ft 9s 4s 4 7 mph 1016.2mb 68f 73f
12:50 2.5ft 9s 4s 11
mph
1016.6mb 67f 74f
11:50 2.5ft 9s 5s 9 11 mph 1017.4mb 67f 73f
10:50 2ft 9s 5s 9 11 mph 1017.9mb 67f 71f
9:50 2.5ft 9s 5s 9 11 mph 1018.4mb 67f 70f
8:50 2.5ft 10s 4s 13
mph
1018.6mb 67f 69f
7:50 2.5ft 9s 4s 16 18 mph 1018.7mb 67f 69f
6:50 2.5ft 10s 5s 13 18 mph 1018.8mb 67f 69f
5:50 2.5ft 10s 4s 16 18 mph 1018.9mb 67f 68f
4:50 2.5ft 8s 4s 13 16 mph 1019.1mb 67f 68f
3:50 2.5ft 8s 4s 16 18 mph 1019.3mb 67f 67f
2:50 2.5ft 8s 4s 16 20 mph 1019.5mb 67f 66f
1:50 2.5ft 8s 4s 16 18 mph 1020.1mb 67f 66f
12:50 2.5ft 8s 4s 16 18 mph 1020.8mb 67f 66f
Sa 08/30 11:50 2.5ft 9s 4s 13 16 mph 1021.1mb 67f 66f
10:50 2.5ft 9s 4s 16 18 mph 1021.4mb 67f 66f
9:50 2.5ft 9s 4s 13 16 mph 1021.7mb 67f 66f
8:50 2.5ft 4s 4s 16 18 mph 1021.7mb 67f 67f
7:50 2.5ft 4s 4s 20 22 mph 1021.1mb 67f 68f
6:50 2.5ft 4s 4s 16 18 mph 1021.3mb 68f 70f
5:50 2.5ft 4s 4s 13 16 mph 1021.4mb 67f 71f
4:50 2.5ft 4s 4s 13 16 mph 1021.8mb 67f 70f
3:50 2.5ft 4s 4s 18 22 mph 1022.1mb 67f 68f
2:50 2.5ft 4s 4s 18 22 mph 1022.9mb 67f 66f
1:50 2.5ft 3s 4s 18 22 mph 1024mb 67f 65f
12:50 2.5ft 3s 4s 16 20 mph 1024.8mb 67f 65f
11:50 2ft 10s 4s 16 18 mph 1025.6mb 67f 64f
10:50 2ft 10s 4s 13 16 mph 1026.1mb 67f 64f
9:50 2ft 10s 4s 13 16 mph 1026.2mb 67f 63f
8:50 2ft 6s 4s 13 18 mph 1026.5mb 67f 63f
7:50 2ft 11s 5s 11 13 mph 1026.7mb 67f 63f
6:50 2ft 10s 5s 11 13 mph 1026.5mb 67f 62f
5:50 2ft 10s 5s 9 11 mph 1026.3mb 66f 62f
4:50 2ft 11s 5s 11 13 mph 1025.8mb 66f 62f
3:50 2ft 11s 4s 11 13 mph 1025.7mb 66f 63f
2:50 2ft 11s 4s 11 13 mph 1025.8mb 67f 63f
1:50 2.5ft 6s 4s 9 11 mph 1025.9mb 67f 63f
12:50 2.5ft 11s 4s 9 11 mph 1025.7mb 67f 62f
Fr 08/29 11:50 2.5ft 11s 4s 11 13 mph 1025.3mb 67f 63f
10:50 2.5ft 12s 5s 11 13 mph 1025.3mb 67f 63f
9:50 2.5ft 12s 5s 13 16 mph 1024.9mb 67f 63f
8:50 2.5ft 11s 5s 11 13 mph 1024.9mb 67f 63f
7:50 2.5ft 11s 5s 11 13 mph 1024.3mb 67f 63f
6:50 2.5ft 11s 5s 9 11 mph 1024mb 67f 63f
5:50 2.5ft 11s 5s 9
mph
1023.5mb 67f 64f
4:50 3ft 5s 5s 9 11 mph 1023.3mb 67f 63f
3:50 3ft 13s 5s 11 13 mph 1023mb 67f 63f
2:50 3ft 12s 5s 9 13 mph 1023.1mb 67f 63f
1:50 3ft 13s 5s 9 11 mph 1023.1mb 67f 63f
12:50 2.5ft 12s 5s 11 13 mph 1022.9mb 67f 63f
11:50 2.5ft 14s 5s 11 13 mph 1022.7mb 67f 63f
10:50 2.5ft 13s 5s 13 16 mph 1022.1mb 67f 63f
9:50 2.5ft 11s 5s 13
mph
1021.7mb 67f 64f
8:50 3ft 14s 4s 13 16 mph 1020.8mb 67f 64f
7:50 3ft 13s 5s 16 18 mph 1019.8mb 66f 63f
6:50 3ft 14s 4s 18 20 mph 1019.1mb 66f 62f
5:50 2.5ft 13s 4s 16 20 mph 1018.1mb 66f 62f
4:50 2.5ft 11s 4s 18 20 mph 1017.2mb 67f 62f
3:50 3ft 13s 4s 18 20 mph 1016.7mb 67f 63f
2:50 3ft 12s 4s 18 22 mph 1016.3mb 67f 64f
1:50 3ft 11s 4s 18 22 mph 1015.6mb 67f 64f
12:50 3ft 12s 4s 20 22 mph 1015.2mb 67f 65f
Do 08/28 11:50 3ft 14s 4s 20 25 mph 1014.7mb 68f 66f
10:50 2.5ft 13s 4s 20 22 mph 1014.4mb 68f 67f
9:50 2.5ft 14s 4s 18 22 mph 1013.9mb 68f 69f
8:50 3ft 3s 4s 18 20 mph 1013.2mb 68f 69f
7:50 3ft 14s 4s 16 20 mph 1012.2mb 68f 70f
6:50 2.5ft 14s 5s 20 25 mph 1011mb 69f 72f
5:50 2.5ft 14s 4s 18 22 mph 1010.4mb 69f 72f
4:50 2.5ft 14s 5s 13 16 mph 1009.8mb 69f 72f
3:50 2.5ft 14s 7s 4 7 mph 1009.4mb 70f 72f